createdAt,value
2018-06-08T00:00:16.712Z,35.07
2018-06-08T00:02:45.184Z,37.83
2018-06-08T00:05:13.631Z,35.10
2018-06-08T00:07:42.228Z,36.73
2018-06-08T00:10:10.684Z,35.10
2018-06-08T00:12:39.260Z,36.00
2018-06-08T00:15:07.807Z,33.63
2018-06-08T00:17:36.256Z,34.63
2018-06-08T00:20:04.767Z,35.50
2018-06-08T00:22:33.234Z,35.40
2018-06-08T00:25:01.473Z,36.20
2018-06-08T00:27:29.975Z,36.87
2018-06-08T00:29:58.479Z,37.10
2018-06-08T00:32:26.937Z,36.80
2018-06-08T00:34:55.441Z,34.47
2018-06-08T00:37:23.912Z,38.03
2018-06-08T00:39:52.355Z,36.83
2018-06-08T00:42:20.877Z,36.10
2018-06-08T00:44:49.040Z,35.70
2018-06-08T00:47:17.534Z,37.60
2018-06-08T00:49:45.703Z,35.77
2018-06-08T00:52:14.167Z,39.10
2018-06-08T00:54:42.663Z,37.23
2018-06-08T00:57:11.154Z,37.63
2018-06-08T00:59:39.362Z,38.30
2018-06-08T01:02:07.856Z,38.27
2018-06-08T01:04:36.377Z,37.13
2018-06-08T01:07:04.915Z,37.00
2018-06-08T01:09:33.460Z,37.90
2018-06-08T01:12:01.652Z,37.80
2018-06-08T01:14:30.830Z,38.07
2018-06-08T01:17:00.056Z,38.77
2018-06-08T01:19:30.660Z,39.70
2018-06-08T01:21:58.841Z,41.70
2018-06-08T01:24:27.339Z,39.93
2018-06-08T01:26:55.791Z,41.47
2018-06-08T01:29:24.327Z,43.20
2018-06-08T01:31:52.905Z,41.47
2018-06-08T01:34:21.439Z,41.90
2018-06-08T01:36:49.924Z,41.60
2018-06-08T01:39:18.380Z,43.33
2018-06-08T01:41:46.882Z,43.20
2018-06-08T01:44:15.365Z,43.90
2018-06-08T01:46:43.859Z,42.00
2018-06-08T01:49:12.006Z,43.53
2018-06-08T01:51:40.499Z,40.87
2018-06-08T01:54:09.047Z,41.67
2018-06-08T01:56:37.551Z,40.90
2018-06-08T01:59:06.100Z,42.80
2018-06-08T02:01:34.591Z,43.00
2018-06-08T02:04:03.144Z,39.70
2018-06-08T02:06:31.286Z,41.00
2018-06-08T02:08:59.759Z,41.70
2018-06-08T02:11:28.247Z,42.10
2018-06-08T02:13:56.692Z,41.60
2018-06-08T02:16:25.232Z,40.43
2018-06-08T02:18:53.370Z,39.70
2018-06-08T02:21:21.851Z,42.37
2018-06-08T02:23:50.320Z,42.00
2018-06-08T02:26:20.787Z,42.90
2018-06-08T02:28:49.235Z,39.73
2018-06-08T02:31:17.738Z,42.27
2018-06-08T02:33:46.228Z,41.20
2018-06-08T02:36:14.787Z,43.73
2018-06-08T02:38:43.283Z,43.60
2018-06-08T02:41:11.816Z,41.67
2018-06-08T02:43:40.279Z,42.67
2018-06-08T02:46:08.448Z,41.37
2018-06-08T02:48:36.870Z,42.50
2018-06-08T02:51:05.416Z,41.30
2018-06-08T02:53:33.555Z,45.30
2018-06-08T02:56:02.048Z,44.97
2018-06-08T02:58:30.504Z,45.57
2018-06-08T03:00:59.036Z,44.30
2018-06-08T03:03:27.181Z,45.63
2018-06-08T03:05:55.653Z,44.90
2018-06-08T03:09:48.352Z,45.90
2018-06-08T03:12:16.553Z,45.83
2018-06-08T03:14:45.069Z,46.87
2018-06-08T03:17:13.637Z,46.33
2018-06-08T03:19:42.159Z,47.60
2018-06-08T03:22:10.643Z,45.80
2018-06-08T03:24:39.107Z,44.27
2018-06-08T03:27:07.583Z,47.90
2018-06-08T03:29:36.094Z,43.90
2018-06-08T03:32:04.335Z,45.03
2018-06-08T03:34:33.135Z,44.53
2018-06-08T03:37:01.600Z,45.80
2018-06-08T03:39:30.084Z,45.80
2018-06-08T03:41:58.579Z,46.73
2018-06-08T03:44:27.083Z,44.87
2018-06-08T03:46:55.605Z,45.40
2018-06-08T03:49:24.123Z,46.60
2018-06-08T03:51:52.647Z,46.90
2018-06-08T03:54:20.783Z,47.20
2018-06-08T03:56:49.664Z,48.60
2018-06-08T03:59:19.469Z,47.33
2018-06-08T04:01:47.976Z,47.20
2018-06-08T04:04:16.607Z,48.47
2018-06-08T04:06:45.111Z,46.70
2018-06-08T04:09:13.647Z,49.00
2018-06-08T04:11:42.106Z,48.23
2018-06-08T04:14:10.615Z,50.27
2018-06-08T04:16:39.079Z,50.37
2018-06-08T04:19:07.557Z,52.17
2018-06-08T04:21:36.052Z,56.97
2018-06-08T04:24:04.535Z,55.57
2018-06-08T04:26:32.747Z,55.67
2018-06-08T04:29:01.291Z,53.93
2018-06-08T04:31:29.483Z,58.50
2018-06-08T04:33:57.952Z,54.30
2018-06-08T04:36:26.138Z,57.03
2018-06-08T04:38:54.579Z,61.27
2018-06-08T04:41:23.083Z,59.30
2018-06-08T04:43:51.542Z,60.10
2018-06-08T04:46:20.091Z,60.90
2018-06-08T04:48:48.627Z,60.60
2018-06-08T04:51:17.119Z,62.40
2018-06-08T04:53:45.555Z,59.83
2018-06-08T04:56:14.079Z,60.27
2018-06-08T04:58:42.540Z,61.37
2018-06-08T05:01:11.073Z,62.83
2018-06-08T05:03:39.480Z,60.57
2018-06-08T05:06:08.875Z,61.43
2018-06-08T05:08:37.395Z,57.80
2018-06-08T05:11:05.857Z,60.20
2018-06-08T05:13:34.367Z,56.73
2018-06-08T05:16:02.836Z,57.30
2018-06-08T05:18:31.319Z,56.00
2018-06-08T05:20:59.755Z,57.13
2018-06-08T05:23:28.277Z,55.43
2018-06-08T05:25:56.764Z,54.63
2018-06-08T05:28:25.428Z,53.17
2018-06-08T05:30:53.932Z,50.43
2018-06-08T05:33:22.434Z,52.20
2018-06-08T05:35:50.614Z,51.87
2018-06-08T05:38:18.789Z,52.20
2018-06-08T05:40:46.954Z,52.60
2018-06-08T05:43:15.399Z,49.57
2018-06-08T05:45:43.984Z,48.70
2018-06-08T05:48:12.526Z,51.13
2018-06-08T05:50:40.655Z,47.00
2018-06-08T05:53:09.148Z,41.90
2018-06-08T05:55:37.714Z,45.50
2018-06-08T05:58:06.287Z,45.60
2018-06-08T06:00:34.780Z,46.20
2018-06-08T06:03:03.311Z,45.57
2018-06-08T06:05:31.763Z,42.57
2018-06-08T06:08:00.249Z,41.23
2018-06-08T06:10:28.803Z,41.80
2018-06-08T06:12:57.312Z,41.30
2018-06-08T06:15:25.784Z,40.83
2018-06-08T06:17:54.296Z,35.97
2018-06-08T06:20:22.485Z,36.57
2018-06-08T06:22:50.927Z,38.30
2018-06-08T06:25:19.391Z,41.27
2018-06-08T06:27:47.928Z,41.60
2018-06-08T06:30:16.498Z,39.30
2018-06-08T06:32:44.674Z,39.63
2018-06-08T06:35:12.842Z,38.57
2018-06-08T06:37:41.280Z,40.60
2018-06-08T06:40:09.795Z,38.63
2018-06-08T06:42:38.247Z,38.20
2018-06-08T06:45:06.877Z,35.77
2018-06-08T06:47:35.082Z,35.47
2018-06-08T06:50:03.555Z,36.07
2018-06-08T06:52:32.079Z,35.40
2018-06-08T06:55:00.763Z,34.80
2018-06-08T06:57:29.243Z,34.43
2018-06-08T06:59:57.842Z,35.47
2018-06-08T07:02:26.328Z,34.37
2018-06-08T07:04:54.825Z,33.23
2018-06-08T07:07:23.287Z,34.60
2018-06-08T07:09:51.748Z,32.70
2018-06-08T07:12:21.163Z,30.97
2018-06-08T07:14:49.617Z,34.33
2018-06-08T07:17:18.143Z,34.70
2018-06-08T07:19:46.585Z,36.70
2018-06-08T07:22:15.113Z,38.13
2018-06-08T07:24:43.600Z,36.60
2018-06-08T07:27:12.036Z,37.67
2018-06-08T07:29:40.572Z,39.23
2018-06-08T07:32:08.743Z,37.10
2018-06-08T07:34:36.930Z,39.20
2018-06-08T07:37:05.107Z,38.00
2018-06-08T07:39:34.271Z,39.60
2018-06-08T07:42:02.836Z,37.00
2018-06-08T07:44:31.352Z,36.13
2018-06-08T07:46:59.828Z,35.57
2018-06-08T07:49:28.353Z,35.40
2018-06-08T07:51:56.923Z,34.30
2018-06-08T07:54:25.460Z,33.40
2018-06-08T07:56:53.919Z,30.17
2018-06-08T07:59:22.417Z,26.87
2018-06-08T08:01:50.907Z,30.47
2018-06-08T08:04:19.423Z,29.27
2018-06-08T08:06:47.840Z,28.07
2018-06-08T08:09:16.400Z,28.07
2018-06-08T08:11:44.829Z,30.00
2018-06-08T08:14:13.303Z,30.00
2018-06-08T08:16:41.799Z,29.07
2018-06-08T08:19:10.309Z,25.50
2018-06-08T08:21:38.907Z,27.57
2018-06-08T08:24:07.391Z,24.60
2018-06-08T08:26:35.875Z,26.80
2018-06-08T08:29:04.600Z,31.27
2018-06-08T08:31:33.083Z,30.30
2018-06-08T08:34:01.593Z,27.53
2018-06-08T08:36:30.252Z,25.27
2018-06-08T08:38:58.759Z,24.80
2018-06-08T08:41:27.160Z,26.90
2018-06-08T08:43:55.575Z,28.10
2018-06-08T08:46:24.113Z,27.03
2018-06-08T08:48:52.295Z,28.53
2018-06-08T08:51:20.467Z,30.33
2018-06-08T08:53:48.899Z,34.03
2018-06-08T08:56:17.442Z,37.07
2018-06-08T08:58:45.884Z,36.73
2018-06-08T09:01:14.328Z,40.60
2018-06-08T09:03:43.057Z,47.40
2018-06-08T09:06:11.532Z,44.00
2018-06-08T09:08:40.078Z,46.23
2018-06-08T09:11:08.621Z,49.60
2018-06-08T09:13:37.115Z,55.27
2018-06-08T09:16:05.831Z,56.07
2018-06-08T09:18:34.525Z,55.07
2018-06-08T09:21:03.083Z,56.40
2018-06-08T09:23:31.587Z,57.30
2018-06-08T09:26:00.141Z,56.97
2018-06-08T09:28:28.482Z,56.40
2018-06-08T09:30:57.003Z,54.90
2018-06-08T09:33:25.492Z,54.40
2018-06-08T09:35:53.631Z,50.47
2018-06-08T09:38:22.124Z,51.07
2018-06-08T09:40:50.578Z,54.17
2018-06-08T09:43:19.166Z,54.60
2018-06-08T09:45:47.711Z,53.70
2018-06-08T09:48:16.298Z,55.33
2018-06-08T09:50:44.814Z,53.60
2018-06-08T09:53:13.340Z,55.17
2018-06-08T09:55:41.495Z,56.10
2018-06-08T09:58:09.992Z,58.23
2018-06-08T10:00:41.244Z,56.13
2018-06-08T10:03:09.641Z,55.40
2018-06-08T10:05:38.292Z,55.67
2018-06-08T10:08:07.255Z,62.30
2018-06-08T10:10:35.748Z,59.60
2018-06-08T10:13:04.236Z,59.73
2018-06-08T10:15:33.038Z,63.00
2018-06-08T10:18:01.521Z,60.80
2018-06-08T10:20:30.045Z,55.17
2018-06-08T10:22:58.685Z,56.27
2018-06-08T10:25:27.108Z,59.40
2018-06-08T10:27:55.643Z,57.90
2018-06-08T10:30:24.159Z,57.67
2018-06-08T10:32:52.911Z,59.33
2018-06-08T10:35:21.639Z,62.47
2018-06-08T10:37:50.062Z,53.67
2018-06-08T10:40:18.603Z,56.20
2018-06-08T10:42:47.448Z,55.60
2018-06-08T10:45:15.963Z,52.70
2018-06-08T10:47:44.122Z,50.30
2018-06-08T10:50:12.585Z,48.50
2018-06-08T10:53:52.223Z,46.67
2018-06-08T10:56:20.836Z,43.50
2018-06-08T10:58:49.437Z,44.83
2018-06-08T11:01:18.927Z,41.97
2018-06-08T11:03:47.431Z,40.03
2018-06-08T11:06:16.157Z,44.40
2018-06-08T11:08:44.893Z,46.33
2018-06-08T11:11:13.359Z,45.23
2018-06-08T11:13:41.839Z,44.83
2018-06-08T11:16:10.355Z,47.07
2018-06-08T11:18:38.811Z,45.00
2018-06-08T11:21:07.575Z,47.67
2018-06-08T11:23:36.060Z,51.00
2018-06-08T11:26:04.540Z,48.73
2018-06-08T11:28:33.091Z,46.30
2018-06-08T11:31:01.609Z,42.27
2018-06-08T11:33:30.071Z,41.90
2018-06-08T11:35:58.633Z,38.10
2018-06-08T11:38:27.172Z,35.17
2018-06-08T11:40:55.647Z,32.37
2018-06-08T11:43:24.089Z,35.87
2018-06-08T11:45:52.672Z,35.00
2018-06-08T11:48:21.247Z,37.03
2018-06-08T11:50:49.852Z,34.67
2018-06-08T11:53:18.419Z,34.97
2018-06-08T11:55:46.527Z,36.10
2018-06-08T11:58:14.948Z,33.80
2018-06-08T12:00:43.115Z,34.67
2018-06-08T12:03:11.317Z,30.40
2018-06-08T12:05:39.843Z,28.93
2018-06-08T12:08:08.376Z,28.17
2018-06-08T12:10:36.904Z,26.47
2018-06-08T12:13:05.543Z,25.40
2018-06-08T12:15:34.204Z,25.60
2018-06-08T12:18:02.443Z,26.97
2018-06-08T12:20:30.967Z,25.23
2018-06-08T12:22:59.114Z,26.43
2018-06-08T12:25:27.583Z,26.57
2018-06-08T12:27:56.050Z,24.33
2018-06-08T12:30:24.659Z,22.43
2018-06-08T12:32:53.132Z,25.27
2018-06-08T12:35:21.743Z,24.10
2018-06-08T12:37:50.176Z,22.73
2018-06-08T12:40:18.705Z,22.20
2018-06-08T12:42:47.169Z,22.30
2018-06-08T12:45:15.660Z,22.93
2018-06-08T12:47:44.127Z,23.13
2018-06-08T12:50:12.591Z,23.67
2018-06-08T12:52:41.106Z,23.97
2018-06-08T12:55:09.643Z,24.43
2018-06-08T12:57:38.156Z,22.20
2018-06-08T13:00:06.751Z,22.30
2018-06-08T13:02:35.204Z,22.23
2018-06-08T13:05:03.933Z,21.30
2018-06-08T13:07:32.426Z,20.90
2018-06-08T13:10:00.622Z,21.40
2018-06-08T13:12:29.208Z,19.50
2018-06-08T13:14:57.715Z,21.90
2018-06-08T13:17:26.326Z,29.73
2018-06-08T13:19:54.911Z,22.60
2018-06-08T13:22:23.098Z,23.90
2018-06-08T13:24:51.590Z,24.87
2018-06-08T13:27:19.797Z,32.93
2018-06-08T13:29:48.387Z,27.13
2018-06-08T13:32:16.897Z,28.00
2018-06-08T13:34:45.405Z,30.57
2018-06-08T13:37:14.349Z,30.50
2018-06-08T13:39:42.853Z,33.37
2018-06-08T13:42:11.313Z,30.33
2018-06-08T13:44:39.892Z,27.40
2018-06-08T13:47:08.475Z,25.50
2018-06-08T13:49:37.074Z,26.13
2018-06-08T13:52:05.769Z,27.93
2018-06-08T13:54:34.267Z,28.50
2018-06-08T13:57:02.728Z,27.20
2018-06-08T13:59:31.211Z,28.23
2018-06-08T14:01:59.723Z,26.67
2018-06-08T14:04:28.236Z,31.23
2018-06-08T14:06:56.775Z,30.77
2018-06-08T14:09:25.248Z,34.90
2018-06-08T14:11:53.812Z,28.50
2018-06-08T14:14:21.963Z,28.87
2018-06-08T14:16:50.407Z,30.73
2018-06-08T14:19:19.055Z,30.80
2018-06-08T14:21:47.599Z,33.17
2018-06-08T14:24:15.781Z,31.80
2018-06-08T14:26:44.228Z,33.47
2018-06-08T14:29:12.753Z,33.10
2018-06-08T14:31:41.348Z,33.10
2018-06-08T14:34:09.932Z,33.80
2018-06-08T14:36:38.589Z,36.37
2018-06-08T14:39:07.462Z,36.40
2018-06-08T14:41:36.411Z,35.23
2018-06-08T14:44:05.012Z,36.60
2018-06-08T14:46:33.542Z,34.73
2018-06-08T14:49:02.008Z,35.07
2018-06-08T14:51:30.495Z,37.40
2018-06-08T14:53:58.687Z,35.70
2018-06-08T14:56:26.891Z,37.10
2018-06-08T14:58:55.513Z,36.07
2018-06-08T15:01:24.049Z,36.67
2018-06-08T15:03:52.184Z,34.87
2018-06-08T15:06:20.765Z,34.43
2018-06-08T15:08:49.270Z,34.73
2018-06-08T15:11:17.453Z,33.77
2018-06-08T15:13:46.008Z,34.90
2018-06-08T15:16:14.451Z,35.40
2018-06-08T15:18:42.939Z,36.33
2018-06-08T15:21:11.422Z,33.83
2018-06-08T15:23:39.974Z,37.30
2018-06-08T15:26:08.115Z,34.00
2018-06-08T15:28:36.578Z,34.30
2018-06-08T15:31:05.080Z,35.00
2018-06-08T15:33:33.290Z,32.77
2018-06-08T15:36:01.825Z,32.63
2018-06-08T15:38:30.283Z,33.37
2018-06-08T15:40:59.064Z,34.27
2018-06-08T15:43:27.709Z,33.47
2018-06-08T15:45:56.195Z,32.37
2018-06-08T15:48:25.301Z,34.63
2018-06-08T15:50:54.307Z,33.07
2018-06-08T15:53:23.715Z,32.43
2018-06-08T15:55:52.597Z,33.17
2018-06-08T15:58:21.308Z,34.73
2018-06-08T16:00:50.156Z,36.20
2018-06-08T16:03:18.963Z,37.90
2018-06-08T16:05:47.518Z,38.20
2018-06-08T16:08:16.071Z,40.13
2018-06-08T16:10:44.603Z,40.60
2018-06-08T16:13:13.138Z,42.73
2018-06-08T16:15:42.023Z,42.13
2018-06-08T16:18:10.612Z,43.30
2018-06-08T16:20:39.145Z,40.70
2018-06-08T16:23:07.716Z,41.37
2018-06-08T16:25:36.179Z,44.03
2018-06-08T16:28:04.973Z,46.67
2018-06-08T16:30:33.595Z,45.90
2018-06-08T16:33:02.524Z,45.20
2018-06-08T16:35:31.023Z,43.83
2018-06-08T16:37:59.508Z,43.57
2018-06-08T16:40:27.944Z,44.77
2018-06-08T16:42:56.517Z,47.00
2018-06-08T16:45:25.180Z,44.50
2018-06-08T16:47:53.347Z,45.50
2018-06-08T16:50:21.547Z,45.60
2018-06-08T16:52:50.242Z,46.40
2018-06-08T16:55:18.847Z,44.77
2018-06-08T16:57:48.679Z,46.10
2018-06-08T17:00:17.207Z,48.00
2018-06-08T17:02:45.942Z,48.73
2018-06-08T17:05:14.446Z,48.77
2018-06-08T17:07:42.948Z,48.83
2018-06-08T17:10:11.123Z,47.37
2018-06-08T17:12:39.629Z,48.27
2018-06-08T17:15:07.804Z,51.70
2018-06-08T17:17:36.818Z,51.27
2018-06-08T17:20:05.363Z,50.67
2018-06-08T17:22:34.734Z,52.00
2018-06-08T17:25:04.555Z,52.53
2018-06-08T17:27:33.093Z,51.07
2018-06-08T17:30:01.941Z,50.43
2018-06-08T17:32:30.739Z,48.30
2018-06-08T17:34:59.256Z,51.07
2018-06-08T17:37:27.999Z,52.17
2018-06-08T17:39:57.257Z,53.70
2018-06-08T17:42:26.244Z,54.27
2018-06-08T17:44:56.255Z,50.73
2018-06-08T17:47:25.457Z,49.87
2018-06-08T17:49:54.640Z,50.50
2018-06-08T17:52:23.577Z,54.60
2018-06-08T17:54:52.059Z,54.93
2018-06-08T17:57:20.600Z,53.70
2018-06-08T17:59:49.151Z,54.93
2018-06-08T18:02:17.331Z,54.47
2018-06-08T18:04:45.537Z,54.07
2018-06-08T18:07:14.060Z,53.17
2018-06-08T18:09:42.597Z,56.43
2018-06-08T18:12:12.056Z,55.00
2018-06-08T18:14:40.512Z,56.80
2018-06-08T18:17:09.005Z,57.57
2018-06-08T18:19:37.503Z,57.50
2018-06-08T18:22:06.093Z,58.13
2018-06-08T18:24:34.579Z,60.20
2018-06-08T18:27:02.818Z,58.40
2018-06-08T18:29:31.312Z,59.77
2018-06-08T18:31:59.875Z,58.90
2018-06-08T18:34:28.807Z,62.80
2018-06-08T18:36:57.287Z,61.90
2018-06-08T18:39:25.780Z,62.27
2018-06-08T18:41:53.985Z,61.40
2018-06-08T18:44:22.571Z,64.90
2018-06-08T18:46:52.016Z,71.20
2018-06-08T18:50:06.592Z,66.27
2018-06-08T18:52:35.135Z,67.37
2018-06-08T18:55:03.737Z,66.60
2018-06-08T18:57:32.239Z,70.13
2018-06-08T19:00:00.704Z,72.70
2018-06-08T19:02:29.212Z,71.47
2018-06-08T19:04:57.731Z,72.63
2018-06-08T19:07:26.282Z,71.43
2018-06-08T19:09:54.812Z,70.80
2018-06-08T19:12:23.303Z,73.33
2018-06-08T19:14:51.807Z,72.00
2018-06-08T23:21:19.266Z,92.60
2018-06-08T23:23:47.767Z,94.63
2018-06-08T23:26:16.224Z,96.63
2018-06-08T23:28:44.709Z,97.63
2018-06-08T23:31:13.191Z,98.47
2018-06-08T23:33:41.668Z,97.07
2018-06-08T23:36:10.139Z,95.30
2018-06-08T23:38:38.627Z,97.97
2018-06-08T23:41:07.191Z,98.93
2018-06-08T23:43:35.719Z,101.20
2018-06-08T23:46:03.909Z,95.10
2018-06-08T23:48:32.051Z,98.47
2018-06-08T23:51:00.523Z,97.90
2018-06-08T23:53:29.028Z,99.37
2018-06-08T23:55:57.481Z,99.27
2018-06-08T23:58:25.956Z,100.20
